createdAt,value
2022-11-05T00:02:23.220Z,72.70
2022-11-05T00:05:08.305Z,72.05
2022-11-05T00:08:04.692Z,72.23
2022-11-05T00:10:32.007Z,72.28
2022-11-05T00:13:18.542Z,73.00
2022-11-05T00:16:04.400Z,73.01
2022-11-05T00:18:31.211Z,72.87
2022-11-05T00:20:57.976Z,71.31
2022-11-05T00:23:43.046Z,72.59
2022-11-05T00:26:14.101Z,71.88
2022-11-05T00:28:43.763Z,72.76
2022-11-05T00:31:14.563Z,72.03
2022-11-05T00:33:43.083Z,71.66
2022-11-05T00:36:10.772Z,72.27
2022-11-05T00:38:37.448Z,72.83
2022-11-05T00:41:04.457Z,71.49
2022-11-05T00:43:49.319Z,72.24
2022-11-05T00:46:15.899Z,72.58
2022-11-05T00:49:01.041Z,72.20
2022-11-05T00:51:27.557Z,71.39
2022-11-05T00:53:54.153Z,72.36
2022-11-05T00:56:20.744Z,72.33
2022-11-05T00:58:47.440Z,72.40
2022-11-05T01:01:14.167Z,71.93
2022-11-05T01:03:40.932Z,72.53
2022-11-05T01:06:15.523Z,72.63
2022-11-05T01:08:44.299Z,72.11
2022-11-05T01:11:33.751Z,73.45
2022-11-05T01:14:06.407Z,73.50
2022-11-05T01:16:33.377Z,72.75
2022-11-05T01:19:01.234Z,70.76
2022-11-05T01:21:27.912Z,72.24
2022-11-05T01:23:54.435Z,71.72
2022-11-05T01:26:21.165Z,71.52
2022-11-05T01:28:55.290Z,70.83
2022-11-05T01:31:23.180Z,71.77
2022-11-05T01:33:50.232Z,71.32
2022-11-05T01:36:17.554Z,71.50
2022-11-05T01:38:44.355Z,69.90
2022-11-05T01:41:11.015Z,70.57
2022-11-05T01:43:54.466Z,71.35
2022-11-05T01:46:28.204Z,71.01
2022-11-05T01:49:01.727Z,70.44
2022-11-05T01:51:29.707Z,71.49
2022-11-05T01:54:06.188Z,72.55
2022-11-05T01:56:45.738Z,71.26
2022-11-05T01:59:34.954Z,71.23
2022-11-05T02:02:02.398Z,70.81
2022-11-05T02:04:38.730Z,71.20
2022-11-05T02:07:07.871Z,71.16
2022-11-05T02:09:45.721Z,69.83
2022-11-05T02:12:14.387Z,69.69
2022-11-05T02:14:41.002Z,70.14
2022-11-05T02:17:41.980Z,68.48
2022-11-05T02:20:11.939Z,69.49
2022-11-05T02:23:10.691Z,69.04
2022-11-05T02:26:15.352Z,68.54
2022-11-05T02:29:26.500Z,69.58
2022-11-05T02:32:10.020Z,69.13
2022-11-05T02:34:51.522Z,69.03
2022-11-05T02:37:33.012Z,69.93
2022-11-05T02:40:22.484Z,70.23
2022-11-05T02:42:55.423Z,69.14
2022-11-05T02:45:21.898Z,69.52
2022-11-05T02:47:58.859Z,68.99
2022-11-05T02:50:35.200Z,70.18
2022-11-05T02:53:07.792Z,69.95
2022-11-05T02:55:40.342Z,69.33
2022-11-05T02:58:07.868Z,70.67
2022-11-05T03:00:42.178Z,69.66
2022-11-05T03:03:30.608Z,67.70
2022-11-05T03:06:26.178Z,70.16
2022-11-05T03:09:30.217Z,69.70
2022-11-05T03:12:30.742Z,69.74
2022-11-05T03:15:39.135Z,70.32
2022-11-05T03:18:31.239Z,69.59
2022-11-05T03:21:12.039Z,71.11
2022-11-05T03:24:03.479Z,68.94
2022-11-05T03:26:33.617Z,69.01
2022-11-05T03:29:06.660Z,69.02
2022-11-05T03:31:35.359Z,69.58
2022-11-05T03:34:04.515Z,69.48
2022-11-05T03:36:35.513Z,68.41
2022-11-05T03:39:06.263Z,68.21
2022-11-05T03:41:35.033Z,69.19
2022-11-05T03:44:05.614Z,69.92
2022-11-05T03:46:37.447Z,68.25
2022-11-05T03:49:07.445Z,67.97
2022-11-05T03:51:49.579Z,68.11
2022-11-05T03:54:16.181Z,67.42
2022-11-05T03:56:58.427Z,68.13
2022-11-05T03:59:25.628Z,69.30
2022-11-05T04:01:53.975Z,68.42
2022-11-05T04:04:20.564Z,69.42
2022-11-05T04:07:05.403Z,69.62
2022-11-05T04:09:50.514Z,69.99
2022-11-05T04:12:35.564Z,69.72
2022-11-05T04:15:02.105Z,70.28
2022-11-05T04:17:28.605Z,70.35
2022-11-05T04:20:13.814Z,70.19
2022-11-05T04:22:58.541Z,70.63
2022-11-05T04:25:25.214Z,70.78
2022-11-05T04:27:52.023Z,70.27
2022-11-05T04:30:19.572Z,70.97
2022-11-05T04:32:56.075Z,70.66
2022-11-05T04:35:22.788Z,69.96
2022-11-05T04:37:49.995Z,70.45
2022-11-05T04:40:16.531Z,69.21
2022-11-05T04:42:43.028Z,67.78
2022-11-05T04:45:09.582Z,69.54
2022-11-05T04:47:36.146Z,70.10
2022-11-05T04:50:02.839Z,69.81
2022-11-05T04:52:29.333Z,68.67
2022-11-05T04:54:55.846Z,67.55
2022-11-05T04:57:22.365Z,69.47
2022-11-05T04:59:49.528Z,69.56
2022-11-05T05:02:16.120Z,70.02
2022-11-05T05:04:42.639Z,69.58
2022-11-05T05:07:09.157Z,70.52
2022-11-05T05:09:35.657Z,69.49
2022-11-05T05:12:02.610Z,70.13
2022-11-05T05:14:29.198Z,70.00
2022-11-05T05:16:55.760Z,70.82
2022-11-05T05:19:24.469Z,70.80
2022-11-05T05:21:51.027Z,70.70
2022-11-05T05:24:19.782Z,70.14
2022-11-05T05:26:49.469Z,71.24
2022-11-05T05:29:16.720Z,71.76
2022-11-05T05:31:43.781Z,71.02
2022-11-05T05:34:12.351Z,70.79
2022-11-05T05:36:38.872Z,71.63
2022-11-05T05:39:07.257Z,70.90
2022-11-05T05:41:33.877Z,70.55
2022-11-05T05:44:00.395Z,70.95
2022-11-05T05:46:26.930Z,71.61
2022-11-05T05:48:54.059Z,71.29
2022-11-05T05:51:20.585Z,71.48
2022-11-05T05:53:47.143Z,70.79
2022-11-05T05:56:19.348Z,72.31
2022-11-05T05:58:46.736Z,71.66
2022-11-05T06:01:18.936Z,70.77
2022-11-05T06:03:47.230Z,71.24
2022-11-05T06:06:14.877Z,72.03
2022-11-05T06:08:42.747Z,71.27
2022-11-05T06:11:09.623Z,71.69
2022-11-05T06:13:36.622Z,71.08
2022-11-05T06:16:08.630Z,70.26
2022-11-05T06:18:36.265Z,71.40
2022-11-05T06:21:04.902Z,71.23
2022-11-05T06:23:32.642Z,71.89
2022-11-05T06:26:01.290Z,70.79
2022-11-05T06:28:29.470Z,70.48
2022-11-05T06:30:57.524Z,70.45
2022-11-05T06:33:24.494Z,69.88
2022-11-05T06:35:51.136Z,70.34
2022-11-05T06:38:17.682Z,70.36
2022-11-05T06:40:44.241Z,70.62
2022-11-05T06:43:10.985Z,68.91
2022-11-05T06:45:37.811Z,70.36
2022-11-05T06:48:04.612Z,70.25
2022-11-05T06:50:31.094Z,69.90
2022-11-05T06:52:59.654Z,68.92
2022-11-05T06:55:28.175Z,69.81
2022-11-05T06:57:55.447Z,68.92
2022-11-05T07:00:22.824Z,69.08
2022-11-05T07:02:49.884Z,69.56
2022-11-05T07:05:16.929Z,68.67
2022-11-05T07:07:44.751Z,68.96
2022-11-05T07:10:13.409Z,67.90
2022-11-05T07:12:39.903Z,68.30
2022-11-05T07:15:07.204Z,68.68
2022-11-05T07:17:33.731Z,68.85
2022-11-05T07:20:00.267Z,68.08
2022-11-05T07:22:26.864Z,68.32
2022-11-05T07:24:53.360Z,67.92
2022-11-05T07:27:19.891Z,67.25
2022-11-05T07:29:46.456Z,67.91
2022-11-05T07:32:13.224Z,66.91
2022-11-05T07:34:39.710Z,67.53
2022-11-05T07:37:06.582Z,67.48
2022-11-05T07:39:33.102Z,67.75
2022-11-05T07:41:59.597Z,67.60
2022-11-05T07:44:27.257Z,67.54
2022-11-05T07:46:53.757Z,65.22
2022-11-05T07:49:20.297Z,67.03
2022-11-05T07:51:46.851Z,66.69
2022-11-05T07:54:13.382Z,66.99
2022-11-05T07:56:39.889Z,65.88
2022-11-05T07:59:06.826Z,66.10
2022-11-05T08:01:33.595Z,64.10
2022-11-05T08:04:00.258Z,65.16
2022-11-05T08:06:26.748Z,63.76
2022-11-05T08:08:53.241Z,64.88
2022-11-05T08:11:19.838Z,65.29
2022-11-05T08:13:46.687Z,64.57
2022-11-05T08:16:13.314Z,63.84
2022-11-05T08:18:40.104Z,62.74
2022-11-05T08:21:07.259Z,63.04
2022-11-05T08:23:33.792Z,63.43
2022-11-05T08:26:03.702Z,61.26
2022-11-05T08:28:30.401Z,61.66
2022-11-05T08:30:57.605Z,61.58
2022-11-05T08:33:25.526Z,61.41
2022-11-05T08:35:52.082Z,61.19
2022-11-05T08:38:19.548Z,59.61
2022-11-05T08:40:54.994Z,57.89
2022-11-05T08:43:22.167Z,61.57
2022-11-05T08:45:49.041Z,60.74
2022-11-05T08:48:18.765Z,60.41
2022-11-05T08:50:47.208Z,59.23
2022-11-05T08:53:14.682Z,59.50
2022-11-05T08:55:41.731Z,59.10
2022-11-05T08:58:12.620Z,58.21
2022-11-05T09:00:39.889Z,59.16
2022-11-05T09:03:08.157Z,59.50
2022-11-05T09:05:39.849Z,59.48
2022-11-05T09:08:10.572Z,58.34
2022-11-05T09:10:37.527Z,58.38
2022-11-05T09:13:04.565Z,57.48
2022-11-05T09:15:31.616Z,58.93
2022-11-05T09:17:58.108Z,59.48
2022-11-05T09:20:24.799Z,58.13
2022-11-05T09:22:51.669Z,58.77
2022-11-05T09:25:18.236Z,59.50
2022-11-05T09:27:44.831Z,58.85
2022-11-05T09:30:12.820Z,59.48
2022-11-05T09:32:39.711Z,59.67
2022-11-05T09:35:06.679Z,59.67
2022-11-05T09:37:33.231Z,60.43
2022-11-05T09:39:59.749Z,60.21
2022-11-05T09:42:33.081Z,59.53
2022-11-05T09:45:03.662Z,58.85
2022-11-05T09:47:44.386Z,60.03
2022-11-05T09:50:36.546Z,59.24
2022-11-05T09:53:04.562Z,59.03
2022-11-05T09:55:39.873Z,57.81
2022-11-05T09:58:22.119Z,57.02
2022-11-05T10:00:52.874Z,59.39
2022-11-05T10:03:22.827Z,57.99
2022-11-05T10:05:51.534Z,59.61
2022-11-05T10:08:23.310Z,58.63
2022-11-05T10:11:03.666Z,57.68
2022-11-05T10:13:38.450Z,57.90
2022-11-05T10:16:34.033Z,57.44
2022-11-05T10:19:14.668Z,57.96
2022-11-05T10:22:05.406Z,58.13
2022-11-05T10:24:29.496Z,58.92
2022-11-05T10:26:57.400Z,59.09
2022-11-05T10:29:35.049Z,57.68
2022-11-05T10:32:05.757Z,57.53
2022-11-05T10:34:35.002Z,57.47
2022-11-05T10:37:03.697Z,57.63
2022-11-05T10:39:32.521Z,56.83
2022-11-05T10:42:33.882Z,55.55
2022-11-05T10:45:07.427Z,56.65
2022-11-05T10:48:11.450Z,56.19
2022-11-05T10:50:39.691Z,56.61
2022-11-05T10:53:22.295Z,56.54
2022-11-05T10:55:51.278Z,57.14
2022-11-05T10:58:17.716Z,56.95
2022-11-05T11:01:06.974Z,56.35
2022-11-05T11:03:51.259Z,57.13
2022-11-05T11:06:25.769Z,58.44
2022-11-05T11:08:55.485Z,58.95
2022-11-05T11:11:27.185Z,56.90
2022-11-05T11:13:56.644Z,58.55
2022-11-05T11:16:26.255Z,57.87
2022-11-05T11:19:00.562Z,58.82
2022-11-05T11:21:29.785Z,58.25
2022-11-05T11:24:02.357Z,58.96
2022-11-05T11:26:34.415Z,58.24
2022-11-05T11:29:25.542Z,58.22
2022-11-05T11:31:56.957Z,58.58
2022-11-05T11:34:39.455Z,57.63
2022-11-05T11:37:23.815Z,58.25
2022-11-05T11:40:04.162Z,57.83
2022-11-05T11:42:36.663Z,59.13
2022-11-05T11:45:15.249Z,59.79
2022-11-05T11:47:50.118Z,59.44
2022-11-05T11:50:33.409Z,59.10
2022-11-05T11:53:35.980Z,59.08
2022-11-05T11:56:16.345Z,59.43
2022-11-05T11:58:49.355Z,60.35
2022-11-05T12:01:28.971Z,60.54
2022-11-05T12:04:19.917Z,60.02
2022-11-05T12:07:04.806Z,60.79
2022-11-05T12:09:49.651Z,60.54
2022-11-05T12:12:18.930Z,61.04
2022-11-05T12:15:00.605Z,60.21
2022-11-05T12:18:05.978Z,60.71
2022-11-05T12:20:57.856Z,60.20
2022-11-05T12:23:45.829Z,60.52
2022-11-05T12:26:15.152Z,61.33
2022-11-05T12:29:24.870Z,61.01
2022-11-05T12:31:59.243Z,60.95
2022-11-05T12:34:49.688Z,61.13
2022-11-05T12:37:31.177Z,60.88
2022-11-05T12:40:00.513Z,62.13
2022-11-05T12:42:26.979Z,61.77
2022-11-05T12:45:05.030Z,62.12
2022-11-05T12:47:37.698Z,62.38
2022-11-05T12:50:15.171Z,62.08
2022-11-05T12:52:47.522Z,63.10
2022-11-05T12:55:21.001Z,62.47
2022-11-05T12:57:52.259Z,63.10
2022-11-05T13:00:24.131Z,62.52
2022-11-05T13:03:01.356Z,62.74
2022-11-05T13:05:35.812Z,62.44
2022-11-05T13:08:16.959Z,63.55
2022-11-05T13:10:52.497Z,63.96
2022-11-05T13:13:31.569Z,63.47
2022-11-05T13:16:13.025Z,63.92
2022-11-05T13:18:56.378Z,63.98
2022-11-05T13:21:26.269Z,64.37
2022-11-05T13:24:10.863Z,63.97
2022-11-05T13:26:55.080Z,64.00
2022-11-05T13:29:43.547Z,64.10
2022-11-05T13:32:41.896Z,64.61
2022-11-05T13:35:27.870Z,64.66
2022-11-05T13:38:18.166Z,64.78
2022-11-05T13:40:56.302Z,64.35
2022-11-05T13:43:49.536Z,64.68
2022-11-05T13:46:43.985Z,64.83
2022-11-05T13:49:40.063Z,64.73
2022-11-05T13:52:09.408Z,65.55
2022-11-05T13:54:51.064Z,65.71
2022-11-05T13:57:55.781Z,65.55
2022-11-05T14:00:25.235Z,65.66
2022-11-05T14:02:57.908Z,65.47
2022-11-05T14:05:32.065Z,65.59
2022-11-05T14:08:02.029Z,66.36
2022-11-05T14:10:40.347Z,65.79
2022-11-05T14:13:34.629Z,66.07
2022-11-05T14:16:01.026Z,65.65
2022-11-05T14:18:46.563Z,65.59
2022-11-05T14:21:31.686Z,66.56
2022-11-05T14:24:22.879Z,66.12
2022-11-05T14:27:10.306Z,66.40
2022-11-05T14:29:39.880Z,67.19
2022-11-05T14:32:21.202Z,66.11
2022-11-05T14:35:36.816Z,66.82
2022-11-05T14:38:15.959Z,66.59
2022-11-05T14:40:44.685Z,66.93
2022-11-05T14:43:14.368Z,66.86
2022-11-05T14:46:00.863Z,67.12
2022-11-05T14:48:40.298Z,66.88
2022-11-05T14:51:28.910Z,66.72
2022-11-05T14:54:20.325Z,66.93
2022-11-05T14:56:54.928Z,67.76
2022-11-05T14:59:25.450Z,67.74
2022-11-05T15:01:57.210Z,67.53
2022-11-05T15:04:31.296Z,67.42
2022-11-05T15:07:03.943Z,67.02
2022-11-05T15:09:54.619Z,67.62
2022-11-05T15:12:39.686Z,67.27
2022-11-05T15:15:21.731Z,67.30
2022-11-05T15:18:11.625Z,66.86
2022-11-05T15:20:47.409Z,66.84
2022-11-05T15:23:20.347Z,66.86
2022-11-05T15:26:10.423Z,67.26
2022-11-05T15:28:47.084Z,67.54
2022-11-05T15:31:13.645Z,67.25
2022-11-05T15:33:46.818Z,67.69
2022-11-05T15:36:32.027Z,67.58
2022-11-05T15:41:46.879Z,67.73
2022-11-05T15:44:26.570Z,67.58
2022-11-05T15:47:14.301Z,67.74
2022-11-05T15:49:43.865Z,67.99
2022-11-05T15:52:17.017Z,68.26
2022-11-05T15:54:44.262Z,68.33
2022-11-05T15:57:22.908Z,67.90
2022-11-05T15:59:49.702Z,67.76
2022-11-05T16:02:25.222Z,68.21
2022-11-05T16:04:52.460Z,68.07
2022-11-05T16:07:19.776Z,68.01
2022-11-05T16:10:01.198Z,67.55
2022-11-05T16:12:33.777Z,68.04
2022-11-05T16:15:09.487Z,67.98
2022-11-05T16:17:47.745Z,67.89
2022-11-05T16:20:38.692Z,67.88
2022-11-05T16:23:23.425Z,68.36
2022-11-05T16:25:50.970Z,68.01
2022-11-05T16:28:29.701Z,67.96
2022-11-05T16:31:01.739Z,68.55
2022-11-05T16:33:45.882Z,68.60
2022-11-05T16:36:12.962Z,68.37
2022-11-05T16:38:40.111Z,69.36
2022-11-05T16:41:06.778Z,69.05
2022-11-05T16:43:34.532Z,68.85
2022-11-05T16:46:01.277Z,68.91
2022-11-05T16:48:27.989Z,69.21
2022-11-05T16:50:54.667Z,69.55
2022-11-05T16:53:21.234Z,69.93
2022-11-05T16:55:47.983Z,69.63
2022-11-05T16:58:23.720Z,69.75
2022-11-05T17:00:52.114Z,69.85
2022-11-05T17:03:19.239Z,70.00
2022-11-05T17:05:46.413Z,70.16
2022-11-05T17:08:13.225Z,69.97
2022-11-05T17:10:40.024Z,70.28
2022-11-05T17:13:06.535Z,70.32
2022-11-05T17:15:36.671Z,70.25
2022-11-05T17:18:04.870Z,70.30
2022-11-05T17:20:40.357Z,70.30
2022-11-05T17:23:10.695Z,70.44
2022-11-05T17:25:38.289Z,70.75
2022-11-05T17:28:05.485Z,70.07
2022-11-05T17:30:32.187Z,70.35
2022-11-05T17:32:59.036Z,70.57
2022-11-05T17:35:26.698Z,70.23
2022-11-05T17:37:53.295Z,70.62
2022-11-05T17:40:22.522Z,70.28
2022-11-05T17:42:49.653Z,70.47
2022-11-05T17:45:16.565Z,70.79
2022-11-05T17:47:43.428Z,70.78
2022-11-05T17:50:12.772Z,70.65
2022-11-05T17:52:39.305Z,71.21
2022-11-05T17:55:16.165Z,71.00
2022-11-05T17:57:44.623Z,71.48
2022-11-05T18:00:12.257Z,71.86
2022-11-05T18:02:38.987Z,71.58
2022-11-05T18:05:06.665Z,70.85
2022-11-05T18:07:33.233Z,71.22
2022-11-05T18:09:59.732Z,70.82
2022-11-05T18:12:26.288Z,70.81
2022-11-05T18:14:52.781Z,71.23
2022-11-05T18:17:19.284Z,71.26
2022-11-05T18:19:45.799Z,71.78
2022-11-05T18:22:12.374Z,71.81
2022-11-05T18:24:38.936Z,72.13
2022-11-05T18:27:05.439Z,71.64
2022-11-05T18:29:32.006Z,71.70
2022-11-05T18:31:58.633Z,71.74
2022-11-05T18:34:25.148Z,71.40
2022-11-05T18:36:56.176Z,71.42
2022-11-05T18:39:23.406Z,71.42
2022-11-05T18:41:50.024Z,71.54
2022-11-05T18:44:16.935Z,71.42
2022-11-05T18:46:57.547Z,71.79
2022-11-05T18:49:25.116Z,72.33
2022-11-05T18:51:52.322Z,71.77
2022-11-05T18:54:19.265Z,71.89
2022-11-05T18:56:46.019Z,72.41
2022-11-05T18:59:35.895Z,72.54
2022-11-05T19:02:01.195Z,72.23
2022-11-05T19:04:27.875Z,72.27
2022-11-05T19:06:54.423Z,72.25
2022-11-05T19:09:21.017Z,73.30
2022-11-05T19:11:47.569Z,72.67
2022-11-05T19:14:14.082Z,72.93
2022-11-05T19:16:40.653Z,73.25
2022-11-05T19:19:07.788Z,73.54
2022-11-05T19:21:34.419Z,72.87
2022-11-05T19:24:03.234Z,73.32
2022-11-05T19:26:30.501Z,73.21
2022-11-05T19:29:01.762Z,73.56
2022-11-05T19:31:29.504Z,72.95
2022-11-05T19:33:56.280Z,73.84
2022-11-05T19:36:24.678Z,73.15
2022-11-05T19:39:00.634Z,73.37
2022-11-05T19:41:27.709Z,73.47
2022-11-05T19:43:55.137Z,73.25
2022-11-05T19:46:23.855Z,75.09
2022-11-05T19:48:51.109Z,73.73
2022-11-05T19:51:21.151Z,74.21
2022-11-05T19:53:48.220Z,74.09
2022-11-05T19:56:20.621Z,74.28
2022-11-05T19:58:47.457Z,73.59
2022-11-05T20:01:15.572Z,74.45
2022-11-05T20:03:42.293Z,73.74
2022-11-05T20:06:16.099Z,74.31
2022-11-05T20:09:07.187Z,74.16
2022-11-05T20:11:29.427Z,74.44
2022-11-05T20:13:56.670Z,74.41
2022-11-05T20:16:27.353Z,74.62
2022-11-05T20:18:54.545Z,75.01
2022-11-05T20:21:21.499Z,74.17
2022-11-05T20:23:48.135Z,75.12
2022-11-05T20:26:15.303Z,74.98
2022-11-05T20:28:43.663Z,75.09
2022-11-05T20:31:13.436Z,74.93
2022-11-05T20:33:41.245Z,75.02
2022-11-05T20:36:10.853Z,74.82
2022-11-05T20:38:37.304Z,75.00
2022-11-05T20:41:12.272Z,74.86
2022-11-05T20:43:43.415Z,74.18
2022-11-05T20:46:13.566Z,74.14
2022-11-05T20:48:40.542Z,74.60
2022-11-05T20:51:11.394Z,74.72
2022-11-05T20:53:38.610Z,74.30
2022-11-05T20:56:09.711Z,74.03
2022-11-05T20:58:37.770Z,73.56
2022-11-05T21:01:07.987Z,73.57
2022-11-05T21:03:34.637Z,73.13
2022-11-05T21:06:04.552Z,73.75
2022-11-05T21:08:31.976Z,73.67
2022-11-05T21:10:59.217Z,73.62
2022-11-05T21:13:27.429Z,73.91
2022-11-05T21:15:56.966Z,73.19
2022-11-05T21:18:31.416Z,73.27
2022-11-05T21:20:59.836Z,73.31
2022-11-05T21:23:29.189Z,73.22
2022-11-05T21:25:55.838Z,73.12
2022-11-05T21:28:22.450Z,72.99
2022-11-05T21:30:49.163Z,73.41
2022-11-05T21:33:17.756Z,73.38
2022-11-05T21:35:47.319Z,73.39
2022-11-05T21:38:15.702Z,74.22
2022-11-05T21:40:42.897Z,73.18
2022-11-05T21:43:09.738Z,73.65
2022-11-05T21:45:39.583Z,73.89
2022-11-05T21:48:07.254Z,73.83
2022-11-05T21:50:52.306Z,73.85
2022-11-05T21:53:37.453Z,74.50
2022-11-05T21:56:42.014Z,73.75
2022-11-05T21:59:34.196Z,74.37
2022-11-05T22:02:03.874Z,74.63
2022-11-05T22:04:32.683Z,74.49
2022-11-05T22:06:59.519Z,74.11
2022-11-05T22:09:26.813Z,74.59
2022-11-05T22:11:53.389Z,74.68
2022-11-05T22:14:19.984Z,74.28
2022-11-05T22:16:47.155Z,74.29
2022-11-05T22:19:13.679Z,74.61
2022-11-05T22:21:40.403Z,74.89
2022-11-05T22:24:07.660Z,75.19
2022-11-05T22:26:35.057Z,75.30
2022-11-05T22:29:01.636Z,75.71
2022-11-05T22:31:33.115Z,76.03
2022-11-05T22:34:02.973Z,75.10
2022-11-05T22:36:29.591Z,75.82
2022-11-05T22:38:56.099Z,75.96
2022-11-05T22:41:22.786Z,75.31
2022-11-05T22:43:49.609Z,76.12
2022-11-05T22:46:20.726Z,76.33
2022-11-05T22:48:47.603Z,75.47
2022-11-05T22:51:19.750Z,76.24
2022-11-05T22:53:47.126Z,75.88
2022-11-05T22:56:17.345Z,76.20
2022-11-05T22:58:44.778Z,76.19
2022-11-05T23:01:13.202Z,76.29
2022-11-05T23:03:41.528Z,75.88
2022-11-05T23:06:31.636Z,76.25
2022-11-05T23:09:18.030Z,76.07
2022-11-05T23:11:48.959Z,76.62
2022-11-05T23:14:16.083Z,77.06
2022-11-05T23:17:01.481Z,77.06
2022-11-05T23:19:46.646Z,76.69
2022-11-05T23:22:43.639Z,77.28
2022-11-05T23:25:17.187Z,76.55
2022-11-05T23:27:45.301Z,76.96
2022-11-05T23:30:20.622Z,77.47
2022-11-05T23:32:48.059Z,76.94
2022-11-05T23:35:15.555Z,76.90
2022-11-05T23:38:01.315Z,77.43
2022-11-05T23:40:31.451Z,77.07
2022-11-05T23:43:16.580Z,77.66
2022-11-05T23:45:59.439Z,77.10
2022-11-05T23:48:34.853Z,77.52
2022-11-05T23:51:01.405Z,77.29
2022-11-05T23:53:29.605Z,77.67
2022-11-05T23:56:06.701Z,77.05
2022-11-05T23:58:33.973Z,77.45
